createdAt,value
2019-05-19T00:02:08.480Z,66.53
2019-05-19T00:04:36.747Z,67.33
2019-05-19T00:07:04.874Z,67.81
2019-05-19T00:09:33.151Z,65.90
2019-05-19T00:12:01.291Z,66.37
2019-05-19T00:14:29.944Z,66.92
2019-05-19T00:16:59.379Z,67.73
2019-05-19T00:19:27.857Z,68.00
2019-05-19T00:21:56.384Z,69.02
2019-05-19T00:24:25.269Z,69.25
2019-05-19T00:26:56.556Z,69.74
2019-05-19T00:29:24.753Z,68.81
2019-05-19T00:31:53.058Z,69.19
2019-05-19T00:34:21.870Z,69.80
2019-05-19T00:36:50.458Z,69.73
2019-05-19T00:39:18.812Z,69.54
2019-05-19T00:41:47.207Z,70.00
2019-05-19T00:44:16.403Z,69.79
2019-05-19T00:46:45.064Z,70.76
2019-05-19T00:49:13.232Z,70.68
2019-05-19T00:51:42.547Z,70.98
2019-05-19T00:54:10.976Z,71.57
2019-05-19T00:56:39.616Z,72.62
2019-05-19T00:59:08.429Z,72.56
2019-05-19T01:01:36.673Z,73.50
2019-05-19T01:04:05.002Z,73.53
2019-05-19T01:06:51.909Z,72.41
2019-05-19T01:09:39.153Z,74.01
2019-05-19T01:12:25.710Z,75.04
2019-05-19T01:15:09.700Z,75.54
2019-05-19T01:17:37.836Z,76.30
2019-05-19T01:20:24.301Z,76.40
2019-05-19T01:22:52.845Z,76.78
2019-05-19T01:25:21.099Z,76.08
2019-05-19T01:27:50.139Z,76.54
2019-05-19T01:30:19.463Z,76.46
2019-05-19T01:32:47.922Z,76.29
2019-05-19T01:35:16.598Z,76.00
2019-05-19T01:37:45.639Z,75.80
2019-05-19T01:40:14.818Z,76.06
2019-05-19T01:42:43.163Z,75.29
2019-05-19T01:45:12.172Z,75.01
2019-05-19T01:47:40.303Z,76.44
2019-05-19T01:50:17.618Z,77.25
2019-05-19T01:52:40.229Z,77.20
2019-05-19T01:55:08.706Z,77.31
2019-05-19T01:57:37.245Z,77.64
2019-05-19T02:00:06.065Z,77.63
2019-05-19T02:02:34.504Z,77.15
2019-05-19T02:05:02.813Z,76.78
2019-05-19T02:07:30.988Z,77.24
2019-05-19T02:09:59.131Z,77.23
2019-05-19T02:12:27.257Z,76.13
2019-05-19T02:14:55.515Z,76.39
2019-05-19T02:17:23.989Z,76.88
2019-05-19T02:19:52.217Z,77.80
2019-05-19T02:22:20.782Z,77.30
2019-05-19T02:24:49.332Z,76.33
2019-05-19T02:27:17.852Z,76.80
2019-05-19T02:29:46.131Z,77.74
2019-05-19T02:32:14.254Z,77.07
2019-05-19T02:34:42.763Z,76.51
2019-05-19T02:37:11.195Z,76.65
2019-05-19T02:39:39.432Z,76.73
2019-05-19T02:42:09.178Z,76.51
2019-05-19T02:44:40.161Z,77.12
2019-05-19T02:47:11.271Z,77.27
2019-05-19T02:49:42.009Z,77.04
2019-05-19T02:52:13.155Z,76.62
2019-05-19T02:54:42.717Z,76.49
2019-05-19T02:57:12.049Z,77.02
2019-05-19T02:59:41.418Z,77.24
2019-05-19T03:02:12.575Z,77.27
2019-05-19T03:04:41.132Z,77.89
2019-05-19T03:07:09.371Z,77.89
2019-05-19T03:09:37.545Z,76.93
2019-05-19T03:12:05.662Z,77.02
2019-05-19T03:14:33.894Z,76.64
2019-05-19T03:17:02.036Z,76.86
2019-05-19T03:19:30.675Z,77.63
2019-05-19T03:21:58.805Z,78.23
2019-05-19T03:24:27.075Z,78.94
2019-05-19T03:26:55.308Z,79.39
2019-05-19T03:29:31.549Z,80.02
2019-05-19T03:32:11.623Z,79.74
2019-05-19T03:34:36.933Z,80.17
2019-05-19T03:37:05.214Z,80.86
2019-05-19T03:39:33.386Z,81.18
2019-05-19T03:42:01.502Z,81.05
2019-05-19T03:44:29.684Z,81.15
2019-05-19T03:46:58.072Z,80.67
2019-05-19T03:49:26.402Z,79.43
2019-05-19T03:51:54.936Z,78.43
2019-05-19T03:54:23.089Z,78.10
2019-05-19T03:56:51.383Z,78.21
2019-05-19T03:59:19.613Z,77.85
2019-05-19T04:01:48.036Z,78.39
2019-05-19T04:04:16.614Z,78.68
2019-05-19T04:06:44.879Z,78.15
2019-05-19T04:09:17.174Z,78.05
2019-05-19T04:11:43.858Z,77.65
2019-05-19T04:14:12.088Z,77.52
2019-05-19T04:16:40.279Z,77.05
2019-05-19T04:19:08.709Z,76.48
2019-05-19T04:21:48.054Z,76.65
2019-05-19T04:24:07.343Z,76.90
2019-05-19T04:26:35.756Z,77.36
2019-05-19T04:29:04.225Z,77.53
2019-05-19T04:31:32.506Z,77.35
2019-05-19T04:34:00.638Z,76.72
2019-05-19T04:36:28.889Z,76.85
2019-05-19T04:38:57.167Z,77.13
2019-05-19T04:41:25.441Z,78.10
2019-05-19T04:43:53.581Z,77.10
2019-05-19T04:46:21.764Z,77.28
2019-05-19T04:48:49.909Z,77.66
2019-05-19T04:51:18.218Z,78.46
2019-05-19T04:53:46.351Z,78.22
2019-05-19T04:56:14.931Z,77.81
2019-05-19T04:58:43.071Z,77.09
2019-05-19T05:01:11.657Z,76.77
2019-05-19T05:03:40.234Z,74.98
2019-05-19T05:06:08.397Z,73.96
2019-05-19T05:08:36.639Z,72.21
2019-05-19T05:11:05.085Z,71.94
2019-05-19T05:13:33.278Z,70.62
2019-05-19T05:16:01.684Z,68.52
2019-05-19T05:18:30.090Z,67.53
2019-05-19T05:20:58.354Z,67.29
2019-05-19T05:23:26.498Z,65.54
2019-05-19T05:25:55.096Z,65.86
2019-05-19T05:28:23.777Z,63.16
2019-05-19T05:30:51.947Z,64.90
2019-05-19T05:33:20.622Z,66.88
2019-05-19T05:35:48.795Z,66.28
2019-05-19T05:38:17.297Z,68.39
2019-05-19T05:40:46.579Z,67.90
2019-05-19T05:43:14.704Z,67.37
2019-05-19T05:45:43.694Z,67.36
2019-05-19T05:48:12.219Z,66.90
2019-05-19T05:50:40.382Z,67.46
2019-05-19T05:53:08.882Z,66.82
2019-05-19T05:55:37.049Z,66.62
2019-05-19T05:58:05.174Z,65.80
2019-05-19T06:00:33.673Z,65.49
2019-05-19T06:03:01.852Z,63.12
2019-05-19T06:05:39.928Z,61.81
2019-05-19T06:08:08.510Z,61.24
2019-05-19T06:10:36.687Z,59.50
2019-05-19T06:13:05.417Z,60.37
2019-05-19T06:15:33.634Z,58.93
2019-05-19T06:18:01.854Z,59.42
2019-05-19T06:20:30.100Z,58.89
2019-05-19T06:22:58.571Z,58.41
2019-05-19T06:25:27.101Z,58.19
2019-05-19T06:27:55.781Z,57.41
2019-05-19T06:30:23.902Z,56.88
2019-05-19T06:32:53.801Z,56.78
2019-05-19T06:35:21.932Z,59.03
2019-05-19T06:37:50.366Z,60.08
2019-05-19T06:40:21.390Z,61.01
2019-05-19T06:42:50.341Z,58.86
2019-05-19T06:45:18.767Z,59.16
2019-05-19T06:47:47.208Z,60.10
2019-05-19T06:50:15.581Z,60.01
2019-05-19T06:52:43.904Z,61.11
2019-05-19T06:55:13.342Z,59.70
2019-05-19T06:57:42.084Z,58.60
2019-05-19T07:00:10.607Z,58.69
2019-05-19T07:02:38.783Z,58.29
2019-05-19T07:05:07.213Z,59.54
2019-05-19T07:07:35.476Z,58.36
2019-05-19T07:10:04.640Z,60.22
2019-05-19T07:12:32.797Z,58.56
2019-05-19T07:15:01.172Z,57.64
2019-05-19T07:17:29.527Z,56.92
2019-05-19T07:19:57.655Z,57.08
2019-05-19T07:22:25.874Z,57.49
2019-05-19T07:24:54.098Z,57.13
2019-05-19T07:27:22.631Z,56.68
2019-05-19T07:29:50.847Z,55.25
2019-05-19T07:32:19.112Z,53.97
2019-05-19T07:34:47.554Z,53.04
2019-05-19T07:37:18.577Z,53.40
2019-05-19T07:39:46.709Z,53.52
2019-05-19T07:42:15.223Z,51.35
2019-05-19T07:44:51.354Z,50.46
2019-05-19T07:47:19.773Z,50.32
2019-05-19T07:49:48.001Z,53.31
2019-05-19T07:52:16.389Z,51.17
2019-05-19T07:54:44.659Z,50.20
2019-05-19T07:57:12.924Z,51.57
2019-05-19T07:59:41.054Z,51.42
2019-05-19T08:02:09.405Z,53.81
2019-05-19T08:04:37.665Z,53.79
2019-05-19T08:07:05.835Z,53.39
2019-05-19T08:09:33.974Z,52.11
2019-05-19T08:12:03.430Z,51.96
2019-05-19T08:14:31.606Z,50.15
2019-05-19T08:17:00.461Z,50.60
2019-05-19T08:19:28.582Z,50.86
2019-05-19T08:21:57.275Z,51.64
2019-05-19T08:24:25.550Z,50.41
2019-05-19T08:26:53.997Z,50.12
2019-05-19T08:29:22.297Z,49.09
2019-05-19T08:31:50.544Z,47.82
2019-05-19T08:34:18.748Z,49.67
2019-05-19T08:36:47.019Z,48.94
2019-05-19T08:39:15.161Z,49.77
2019-05-19T08:41:43.420Z,50.69
2019-05-19T08:44:11.557Z,49.31
2019-05-19T08:46:39.721Z,50.68
2019-05-19T08:49:08.108Z,50.18
2019-05-19T08:51:36.286Z,48.95
2019-05-19T08:54:14.223Z,48.35
2019-05-19T08:56:35.001Z,48.61
2019-05-19T08:59:03.519Z,49.15
2019-05-19T09:01:31.681Z,49.28
2019-05-19T09:03:59.804Z,48.55
2019-05-19T09:06:28.071Z,48.51
2019-05-19T09:08:56.536Z,45.82
2019-05-19T09:11:24.802Z,45.06
2019-05-19T09:13:53.421Z,44.23
2019-05-19T09:16:21.713Z,43.28
2019-05-19T09:18:50.647Z,44.69
2019-05-19T09:21:18.853Z,44.99
2019-05-19T09:23:47.239Z,43.35
2019-05-19T09:26:15.822Z,43.62
2019-05-19T09:28:44.103Z,43.90
2019-05-19T09:31:12.686Z,43.51
2019-05-19T09:33:41.238Z,42.56
2019-05-19T09:36:09.529Z,42.82
2019-05-19T09:38:37.684Z,41.32
2019-05-19T09:41:06.084Z,40.13
2019-05-19T09:43:34.903Z,39.95
2019-05-19T09:46:03.356Z,41.20
2019-05-19T09:48:31.845Z,42.83
2019-05-19T09:50:59.971Z,42.27
2019-05-19T09:53:28.136Z,41.63
2019-05-19T09:55:57.201Z,42.22
2019-05-19T09:58:25.367Z,42.85
2019-05-19T10:00:53.693Z,42.92
2019-05-19T10:03:21.831Z,44.50
2019-05-19T10:05:50.071Z,44.57
2019-05-19T10:08:29.360Z,45.05
2019-05-19T10:11:40.892Z,44.14
2019-05-19T10:14:09.755Z,44.08
2019-05-19T10:16:38.361Z,42.94
2019-05-19T10:19:06.563Z,41.96
2019-05-19T10:21:35.003Z,40.23
2019-05-19T10:24:03.168Z,40.82
2019-05-19T10:26:31.492Z,41.98
2019-05-19T10:28:59.740Z,40.92
2019-05-19T10:31:27.960Z,40.99
2019-05-19T10:33:56.320Z,40.51
2019-05-19T10:36:26.062Z,40.52
2019-05-19T10:38:54.269Z,40.15
2019-05-19T10:41:22.882Z,39.56
2019-05-19T10:44:00.727Z,39.75
2019-05-19T10:46:29.092Z,39.58
2019-05-19T10:48:57.932Z,38.82
2019-05-19T10:51:26.602Z,38.52
2019-05-19T10:53:54.769Z,37.81
2019-05-19T10:56:22.918Z,37.56
2019-05-19T10:58:51.035Z,38.70
2019-05-19T11:01:19.489Z,37.91
2019-05-19T11:03:47.705Z,37.74
2019-05-19T11:06:16.235Z,37.06
2019-05-19T11:08:44.392Z,36.89
2019-05-19T11:11:12.905Z,38.24
2019-05-19T11:13:41.571Z,36.12
2019-05-19T11:16:10.134Z,36.76
2019-05-19T11:18:38.397Z,36.11
2019-05-19T11:21:06.545Z,35.79
2019-05-19T11:23:34.688Z,35.98
2019-05-19T11:26:02.850Z,35.43
2019-05-19T11:28:32.316Z,35.83
2019-05-19T11:31:00.510Z,36.03
2019-05-19T11:33:29.216Z,36.12
2019-05-19T11:35:57.640Z,37.40
2019-05-19T11:38:26.151Z,37.09
2019-05-19T11:40:54.727Z,36.30
2019-05-19T11:43:23.706Z,36.41
2019-05-19T11:45:51.871Z,37.19
2019-05-19T11:48:20.337Z,36.17
2019-05-19T11:50:48.926Z,35.81
2019-05-19T11:53:17.092Z,35.68
2019-05-19T11:55:45.242Z,35.33
2019-05-19T11:58:13.932Z,35.88
2019-05-19T12:00:42.054Z,36.12
2019-05-19T12:03:10.259Z,36.31
2019-05-19T12:05:38.904Z,36.48
2019-05-19T12:08:07.094Z,37.41
2019-05-19T12:10:35.250Z,36.73
2019-05-19T12:13:03.383Z,37.10
2019-05-19T12:15:31.552Z,38.12
2019-05-19T12:17:59.768Z,38.32
2019-05-19T12:20:28.027Z,38.17
2019-05-19T12:22:56.351Z,37.91
2019-05-19T12:25:24.701Z,37.26
2019-05-19T12:27:52.967Z,37.48
2019-05-19T12:30:21.463Z,36.55
2019-05-19T12:32:49.687Z,35.90
2019-05-19T12:35:18.560Z,35.32
2019-05-19T12:37:46.841Z,35.39
2019-05-19T12:40:15.819Z,35.86
2019-05-19T12:42:43.988Z,36.44
2019-05-19T12:45:16.494Z,35.61
2019-05-19T12:47:44.983Z,35.52
2019-05-19T12:50:14.908Z,35.51
2019-05-19T12:52:43.063Z,36.50
2019-05-19T12:55:11.810Z,35.58
2019-05-19T12:57:40.216Z,36.15
2019-05-19T13:00:09.447Z,34.90
2019-05-19T13:02:38.279Z,35.14
2019-05-19T13:05:07.320Z,35.15
2019-05-19T13:07:35.492Z,34.97
2019-05-19T13:10:05.415Z,34.32
2019-05-19T13:12:33.562Z,33.42
2019-05-19T13:15:02.530Z,32.31
2019-05-19T13:17:30.758Z,33.49
2019-05-19T13:19:59.250Z,32.82
2019-05-19T13:22:27.417Z,33.32
2019-05-19T13:24:55.586Z,33.63
2019-05-19T13:27:23.961Z,34.16
2019-05-19T13:29:52.187Z,33.95
2019-05-19T13:32:20.350Z,34.07
2019-05-19T13:34:48.552Z,34.15
2019-05-19T13:37:16.705Z,33.61
2019-05-19T13:39:44.825Z,33.46
2019-05-19T13:42:13.107Z,33.24
2019-05-19T13:44:41.261Z,32.59
2019-05-19T13:47:09.732Z,32.55
2019-05-19T13:49:37.829Z,31.98
2019-05-19T13:52:06.868Z,31.73
2019-05-19T13:54:34.984Z,32.59
2019-05-19T13:57:11.912Z,33.47
2019-05-19T13:59:33.443Z,33.92
2019-05-19T14:02:02.116Z,32.49
2019-05-19T14:04:30.347Z,34.22
2019-05-19T14:06:58.593Z,35.94
2019-05-19T14:09:27.535Z,38.84
2019-05-19T14:11:55.894Z,36.81
2019-05-19T14:14:23.994Z,37.04
2019-05-19T14:16:52.518Z,35.54
2019-05-19T14:19:20.819Z,36.75
2019-05-19T14:21:49.249Z,37.56
2019-05-19T14:24:17.644Z,39.20
2019-05-19T14:26:45.785Z,40.64
2019-05-19T14:29:13.943Z,40.89
2019-05-19T14:31:42.068Z,40.47
2019-05-19T14:34:10.181Z,40.32
2019-05-19T14:36:38.585Z,38.62
2019-05-19T14:39:07.065Z,35.70
2019-05-19T14:41:46.632Z,35.20
2019-05-19T14:44:15.102Z,35.15
2019-05-19T14:46:43.290Z,35.83
2019-05-19T14:49:11.437Z,35.60
2019-05-19T14:51:39.580Z,34.50
2019-05-19T14:54:08.353Z,34.64
2019-05-19T14:56:36.834Z,34.70
2019-05-19T14:59:05.016Z,33.42
2019-05-19T15:01:33.394Z,33.29
2019-05-19T15:04:01.519Z,33.53
2019-05-19T15:06:29.765Z,33.41
2019-05-19T15:08:58.816Z,33.40
2019-05-19T15:11:27.675Z,33.89
2019-05-19T15:13:55.954Z,34.38
2019-05-19T15:16:24.097Z,34.70
2019-05-19T15:18:52.352Z,35.27
2019-05-19T15:21:20.485Z,35.16
2019-05-19T15:23:49.097Z,35.32
2019-05-19T15:26:17.706Z,35.75
2019-05-19T15:28:46.149Z,36.26
2019-05-19T15:31:14.315Z,36.12
2019-05-19T15:33:42.685Z,36.74
2019-05-19T15:36:10.913Z,36.43
2019-05-19T15:38:39.921Z,36.43
2019-05-19T15:41:08.054Z,36.77
2019-05-19T15:43:36.208Z,36.17
2019-05-19T15:46:04.419Z,36.04
2019-05-19T15:48:32.804Z,36.43
2019-05-19T15:51:00.975Z,36.75
2019-05-19T15:53:29.143Z,36.80
2019-05-19T15:55:57.303Z,36.55
2019-05-19T15:58:25.829Z,36.38
2019-05-19T16:00:54.018Z,36.17
2019-05-19T16:03:22.181Z,36.51
2019-05-19T16:05:50.309Z,36.47
2019-05-19T16:08:18.791Z,36.68
2019-05-19T16:10:47.356Z,37.14
2019-05-19T16:13:15.835Z,37.44
2019-05-19T16:15:44.004Z,37.19
2019-05-19T16:18:12.514Z,36.85
2019-05-19T16:20:41.147Z,37.03
2019-05-19T16:23:09.321Z,36.99
2019-05-19T16:25:37.609Z,37.29
2019-05-19T16:28:05.769Z,37.26
2019-05-19T16:30:34.001Z,37.54
2019-05-19T16:33:02.142Z,37.89
2019-05-19T16:35:30.324Z,38.32
2019-05-19T16:37:58.595Z,38.32
2019-05-19T16:40:27.555Z,38.70
2019-05-19T16:42:55.706Z,39.00
2019-05-19T16:45:28.872Z,39.08
2019-05-19T16:47:57.021Z,39.35
2019-05-19T16:50:25.650Z,40.05
2019-05-19T16:52:53.800Z,40.03
2019-05-19T16:55:27.327Z,40.28
2019-05-19T16:57:55.951Z,40.36
2019-05-19T17:00:25.433Z,39.85
2019-05-19T17:02:53.818Z,40.17
2019-05-19T17:05:21.931Z,39.28
2019-05-19T17:07:50.081Z,38.41
2019-05-19T17:10:18.704Z,38.37
2019-05-19T17:12:46.926Z,38.65
2019-05-19T17:15:16.257Z,38.97
2019-05-19T17:17:44.741Z,38.80
2019-05-19T17:20:13.772Z,38.93
2019-05-19T17:22:42.672Z,38.41
2019-05-19T17:25:11.341Z,38.50
2019-05-19T17:27:39.528Z,39.12
2019-05-19T17:30:08.645Z,39.55
2019-05-19T17:32:36.770Z,39.81
2019-05-19T17:35:06.150Z,40.91
2019-05-19T17:37:34.306Z,41.25
2019-05-19T17:40:02.681Z,41.52
2019-05-19T17:42:31.178Z,44.57
2019-05-19T17:44:59.314Z,45.71
2019-05-19T17:47:27.605Z,46.48
2019-05-19T17:49:56.196Z,47.98
2019-05-19T17:52:25.063Z,48.71
2019-05-19T17:54:53.569Z,50.81
2019-05-19T17:57:22.077Z,50.88
2019-05-19T17:59:51.762Z,50.96
2019-05-19T18:02:19.988Z,51.81
2019-05-19T18:04:48.147Z,52.03
2019-05-19T18:07:16.325Z,53.25
2019-05-19T18:09:44.467Z,53.62
2019-05-19T18:12:12.632Z,54.35
2019-05-19T18:14:40.849Z,54.53
2019-05-19T18:17:09.175Z,54.94
2019-05-19T18:19:37.724Z,55.74
2019-05-19T18:22:05.983Z,56.72
2019-05-19T18:24:34.258Z,56.73
2019-05-19T18:27:02.767Z,56.87
2019-05-19T18:29:31.835Z,56.95
2019-05-19T18:32:00.098Z,56.65
2019-05-19T18:34:28.240Z,57.05
2019-05-19T18:36:56.408Z,57.03
2019-05-19T18:39:24.673Z,56.70
2019-05-19T18:41:53.287Z,56.83
2019-05-19T18:44:21.457Z,57.61
2019-05-19T18:46:49.571Z,57.45
2019-05-19T18:49:17.964Z,57.84
2019-05-19T18:51:46.359Z,58.69
2019-05-19T18:54:15.101Z,59.08
2019-05-19T18:56:43.271Z,59.24
2019-05-19T18:59:11.591Z,59.81
2019-05-19T19:01:39.728Z,60.00
2019-05-19T19:04:08.188Z,60.35
2019-05-19T19:06:36.369Z,60.79
2019-05-19T19:09:05.804Z,61.03
2019-05-19T19:11:33.913Z,61.06
2019-05-19T19:14:02.093Z,61.10
2019-05-19T19:16:30.582Z,61.28
2019-05-19T19:18:58.745Z,61.94
2019-05-19T19:21:27.235Z,63.00
2019-05-19T19:23:55.764Z,63.03
2019-05-19T19:26:24.610Z,63.69
2019-05-19T19:28:52.767Z,64.16
2019-05-19T19:31:21.938Z,64.56
2019-05-19T19:33:50.104Z,64.41
2019-05-19T19:36:18.246Z,63.71
2019-05-19T19:38:46.648Z,62.85
2019-05-19T19:41:15.385Z,62.69
2019-05-19T19:43:43.773Z,62.16
2019-05-19T19:46:11.968Z,62.63
2019-05-19T19:48:40.367Z,62.20
2019-05-19T19:51:08.605Z,59.88
2019-05-19T19:53:38.882Z,59.76
2019-05-19T19:56:07.029Z,59.27
2019-05-19T19:58:35.272Z,58.70
2019-05-19T20:01:03.808Z,58.26
2019-05-19T20:03:32.328Z,57.86
2019-05-19T20:06:00.469Z,57.92
2019-05-19T20:08:28.980Z,57.17
2019-05-19T20:10:57.467Z,57.48
2019-05-19T20:13:26.244Z,57.55
2019-05-19T20:15:54.715Z,57.63
2019-05-19T20:18:22.941Z,58.03
2019-05-19T20:20:51.265Z,58.72
2019-05-19T20:23:19.419Z,59.13
2019-05-19T20:25:47.548Z,59.55
2019-05-19T20:28:15.705Z,60.04
2019-05-19T20:30:44.185Z,60.98
2019-05-19T20:33:12.721Z,61.23
2019-05-19T20:35:40.839Z,62.11
2019-05-19T20:38:10.088Z,62.06
2019-05-19T20:40:38.895Z,62.35
2019-05-19T20:43:07.239Z,63.28
2019-05-19T20:45:35.521Z,63.82
2019-05-19T20:48:03.923Z,63.88
2019-05-19T20:50:32.406Z,63.99
2019-05-19T20:53:01.356Z,63.52
2019-05-19T20:55:29.884Z,63.19
2019-05-19T20:57:58.128Z,62.93
2019-05-19T21:00:26.247Z,62.29
2019-05-19T21:02:54.716Z,62.33
2019-05-19T21:05:22.998Z,61.96
2019-05-19T21:07:51.126Z,62.02
2019-05-19T21:10:19.345Z,61.64
2019-05-19T21:12:47.754Z,61.68
2019-05-19T21:15:18.116Z,61.29
2019-05-19T21:17:46.556Z,61.49
2019-05-19T21:20:15.088Z,61.34
2019-05-19T21:22:43.804Z,61.82
2019-05-19T21:25:12.482Z,61.77
2019-05-19T21:27:41.158Z,61.68
2019-05-19T21:30:09.312Z,62.01
2019-05-19T21:32:37.451Z,61.89
2019-05-19T21:35:06.821Z,61.83
2019-05-19T21:37:35.002Z,62.03
2019-05-19T21:40:03.936Z,62.06
2019-05-19T21:42:32.070Z,62.07
2019-05-19T21:45:00.526Z,62.81
2019-05-19T21:47:28.695Z,62.02
2019-05-19T21:49:56.871Z,62.92
2019-05-19T21:52:25.110Z,62.53
2019-05-19T21:54:53.700Z,63.32
2019-05-19T21:57:22.098Z,62.50
2019-05-19T21:59:50.321Z,62.56
2019-05-19T22:02:18.875Z,63.02
2019-05-19T22:04:47.010Z,63.65
2019-05-19T22:07:26.339Z,63.41
2019-05-19T22:09:54.545Z,63.72
2019-05-19T22:12:22.724Z,64.25
2019-05-19T22:14:50.848Z,64.56
2019-05-19T22:17:19.136Z,64.72
2019-05-19T22:19:47.645Z,64.64
2019-05-19T22:22:15.804Z,65.11
2019-05-19T22:24:44.064Z,65.31
2019-05-19T22:27:12.203Z,65.24
2019-05-19T22:29:40.396Z,65.50
2019-05-19T22:32:08.527Z,65.37
2019-05-19T22:34:36.825Z,66.21
2019-05-19T22:37:04.956Z,65.99
2019-05-19T22:39:33.326Z,66.00
2019-05-19T22:42:01.449Z,66.38
2019-05-19T22:44:29.868Z,66.47
2019-05-19T22:46:58.162Z,66.51
2019-05-19T22:49:26.390Z,66.82
2019-05-19T22:51:55.347Z,66.35
2019-05-19T22:54:23.764Z,66.12
2019-05-19T22:56:51.948Z,66.26
2019-05-19T22:59:20.501Z,65.89
2019-05-19T23:01:52.054Z,66.53
2019-05-19T23:04:20.852Z,66.38
2019-05-19T23:06:48.978Z,66.66
2019-05-19T23:09:17.125Z,67.14
2019-05-19T23:11:45.354Z,67.41
2019-05-19T23:14:13.669Z,67.89
2019-05-19T23:16:42.133Z,68.20
2019-05-19T23:19:10.369Z,68.61
2019-05-19T23:21:38.885Z,68.96
2019-05-19T23:24:07.111Z,69.29
2019-05-19T23:26:36.005Z,69.53
2019-05-19T23:29:04.234Z,70.14
2019-05-19T23:31:32.488Z,69.93
2019-05-19T23:34:00.619Z,69.63
2019-05-19T23:36:29.096Z,69.72
2019-05-19T23:38:57.211Z,70.16
2019-05-19T23:41:25.756Z,70.36
2019-05-19T23:43:55.029Z,70.43
2019-05-19T23:46:23.487Z,69.83
2019-05-19T23:48:51.772Z,70.79
2019-05-19T23:51:19.937Z,71.14
2019-05-19T23:53:48.056Z,70.90
2019-05-19T23:56:16.521Z,70.87
2019-05-19T23:58:44.932Z,70.81
